createdAt,value
2024-02-13T00:01:52.852Z,75.50
2024-02-13T00:05:56.257Z,75.50
2024-02-13T00:09:59.429Z,75.60
2024-02-13T00:14:02.551Z,75.50
2024-02-13T00:18:07.316Z,75.40
2024-02-13T00:22:13.495Z,75.40
2024-02-13T00:26:17.573Z,75.20
2024-02-13T00:30:20.745Z,75.20
2024-02-13T00:34:46.069Z,75.10
2024-02-13T00:38:49.257Z,75.10
2024-02-13T00:42:53.985Z,75.00
2024-02-13T00:46:58.664Z,75.00
2024-02-13T00:51:02.173Z,74.90
2024-02-13T00:55:08.737Z,74.90
2024-02-13T00:59:12.279Z,74.90
2024-02-13T01:03:15.448Z,74.90
2024-02-13T01:07:19.347Z,74.90
2024-02-13T01:11:22.305Z,75.00
2024-02-13T01:15:25.409Z,75.10
2024-02-13T01:19:28.581Z,75.30
2024-02-13T01:23:31.623Z,75.30
2024-02-13T01:27:34.820Z,75.30
2024-02-13T01:31:38.919Z,75.30
2024-02-13T01:35:43.600Z,75.40
2024-02-13T01:39:46.663Z,75.50
2024-02-13T01:43:50.594Z,75.50
2024-02-13T01:47:55.202Z,75.70
2024-02-13T01:52:00.318Z,75.70
2024-02-13T01:56:06.419Z,75.80
2024-02-13T02:00:15.672Z,75.80
2024-02-13T02:04:19.921Z,75.90
2024-02-13T02:08:23.578Z,76.00
2024-02-13T02:12:27.261Z,76.10
2024-02-13T02:16:30.301Z,76.00
2024-02-13T02:20:33.623Z,76.00
2024-02-13T02:24:36.689Z,76.10
2024-02-13T02:28:44.538Z,76.20
2024-02-13T02:32:51.014Z,76.30
2024-02-13T02:36:54.067Z,76.40
2024-02-13T02:40:57.363Z,76.50
2024-02-13T02:45:00.424Z,76.50
2024-02-13T02:49:04.007Z,76.60
2024-02-13T02:53:07.151Z,76.70
2024-02-13T02:57:11.807Z,76.80
2024-02-13T03:01:15.172Z,76.80
2024-02-13T03:05:18.294Z,76.90
2024-02-13T03:09:21.691Z,76.80
2024-02-13T03:13:24.582Z,76.70
2024-02-13T03:17:27.924Z,76.80
2024-02-13T03:21:30.901Z,76.90
2024-02-13T03:25:33.900Z,77.00
2024-02-13T03:29:55.063Z,77.00
2024-02-13T03:33:58.119Z,77.10
2024-02-13T03:38:01.156Z,77.10
2024-02-13T03:42:04.365Z,77.10
2024-02-13T03:46:07.446Z,77.10
2024-02-13T03:50:10.748Z,77.10
2024-02-13T03:54:13.869Z,77.20
2024-02-13T03:58:16.859Z,77.20
2024-02-13T04:02:19.931Z,77.20
2024-02-13T04:06:23.182Z,77.20
2024-02-13T04:10:26.224Z,77.20
2024-02-13T04:14:33.642Z,77.30
2024-02-13T04:18:36.795Z,77.30
2024-02-13T04:22:39.972Z,77.30
2024-02-13T04:26:43.763Z,77.30
2024-02-13T04:30:46.832Z,77.40
2024-02-13T04:34:49.936Z,77.60
2024-02-13T04:38:53.074Z,77.70
2024-02-13T04:42:56.140Z,77.70
2024-02-13T04:46:59.021Z,77.70
2024-02-13T04:51:02.828Z,77.60
2024-02-13T04:55:06.197Z,77.50
2024-02-13T04:59:10.961Z,77.60
2024-02-13T05:03:27.287Z,77.70
2024-02-13T05:07:33.076Z,77.70
2024-02-13T05:11:35.994Z,77.80
2024-02-13T05:15:38.982Z,77.70
2024-02-13T05:19:42.447Z,77.80
2024-02-13T05:23:45.534Z,77.90
2024-02-13T05:27:50.115Z,77.80
2024-02-13T05:31:54.072Z,77.90
2024-02-13T05:35:58.117Z,77.80
2024-02-13T05:40:01.027Z,77.70
2024-02-13T05:44:04.540Z,77.70
2024-02-13T05:48:08.825Z,77.70
2024-02-13T05:52:11.861Z,77.80
2024-02-13T05:56:25.996Z,77.80
2024-02-13T06:00:32.546Z,77.90
2024-02-13T06:04:36.324Z,78.10
2024-02-13T06:08:39.337Z,78.20
2024-02-13T06:12:43.121Z,78.30
2024-02-13T06:16:46.232Z,78.30
2024-02-13T06:20:49.268Z,78.20
2024-02-13T06:24:52.315Z,78.20
2024-02-13T06:28:56.310Z,78.20
2024-02-13T06:32:59.647Z,78.10
2024-02-13T06:37:03.169Z,78.10
2024-02-13T06:41:12.006Z,78.30
2024-02-13T06:45:15.318Z,78.30
2024-02-13T06:49:18.556Z,78.40
2024-02-13T06:53:21.891Z,78.30
2024-02-13T06:57:25.303Z,78.30
2024-02-13T07:01:30.904Z,78.20
2024-02-13T07:05:34.053Z,78.40
2024-02-13T07:09:37.403Z,78.50
2024-02-13T07:13:40.535Z,78.50
2024-02-13T07:17:52.707Z,78.30
2024-02-13T07:22:02.710Z,78.50
2024-02-13T07:26:05.866Z,78.70
2024-02-13T07:30:10.024Z,78.60
2024-02-13T07:34:14.782Z,78.60
2024-02-13T07:38:17.944Z,78.40
2024-02-13T07:42:22.385Z,78.40
2024-02-13T07:46:25.464Z,78.30
2024-02-13T07:50:29.677Z,78.20
2024-02-13T07:54:33.008Z,78.10
2024-02-13T07:58:37.496Z,78.00
2024-02-13T08:02:41.401Z,77.90
2024-02-13T08:06:44.501Z,77.90
2024-02-13T08:10:48.898Z,78.00
2024-02-13T08:14:53.213Z,78.10
2024-02-13T08:18:57.197Z,78.20
2024-02-13T08:23:01.149Z,78.20
2024-02-13T08:27:07.768Z,78.10
2024-02-13T08:31:14.122Z,77.80
2024-02-13T08:35:23.128Z,77.60
2024-02-13T08:39:26.227Z,77.30
2024-02-13T08:43:30.274Z,77.40
2024-02-13T08:47:34.357Z,77.40
2024-02-13T08:51:39.959Z,77.20
2024-02-13T08:55:49.632Z,77.10
2024-02-13T08:59:59.944Z,76.90
2024-02-13T09:04:08.060Z,76.80
2024-02-13T09:08:15.315Z,76.40
2024-02-13T09:12:25.046Z,76.00
2024-02-13T09:16:42.810Z,75.30
2024-02-13T09:21:30.283Z,74.50
2024-02-13T09:25:36.628Z,73.60
2024-02-13T09:39:23.760Z,70.90
2024-02-13T09:43:30.282Z,70.30
2024-02-13T09:47:35.149Z,68.90
2024-02-13T09:51:42.209Z,68.60
2024-02-13T09:55:49.738Z,68.40
2024-02-13T09:59:58.498Z,68.00
2024-02-13T10:04:06.032Z,67.00
2024-02-13T10:08:37.828Z,66.60
2024-02-13T10:13:16.030Z,65.10
2024-02-13T10:17:31.415Z,64.50
2024-02-13T10:21:37.320Z,64.30
2024-02-13T10:25:46.182Z,62.10
2024-02-13T10:30:03.238Z,61.60
2024-02-13T10:34:23.521Z,61.80
2024-02-13T10:39:13.243Z,60.90
2024-02-13T10:43:20.205Z,59.90
2024-02-13T10:47:30.153Z,59.70
2024-02-13T10:51:41.098Z,59.90
2024-02-13T10:55:47.971Z,59.00
2024-02-13T10:59:56.969Z,59.00
2024-02-13T11:04:08.504Z,58.20
2024-02-13T11:08:39.173Z,58.10
2024-02-13T11:13:22.288Z,58.20
2024-02-13T11:17:36.304Z,57.10
2024-02-13T11:21:56.692Z,56.90
2024-02-13T11:26:53.629Z,57.70
2024-02-13T11:30:58.647Z,57.00
2024-02-13T11:35:32.415Z,55.60
2024-02-13T11:39:48.709Z,54.20
2024-02-13T13:03:54.024Z,48.30
2024-02-13T13:08:00.758Z,46.80
2024-02-13T13:12:07.679Z,46.10
2024-02-13T13:16:13.980Z,46.70
2024-02-13T13:20:20.294Z,46.80
2024-02-13T13:24:25.390Z,47.10
2024-02-13T13:28:30.885Z,46.60
2024-02-13T13:32:35.456Z,46.70
2024-02-13T13:36:41.149Z,45.80
2024-02-13T13:40:50.928Z,45.80
2024-02-13T13:44:54.903Z,45.80
2024-02-13T13:49:32.918Z,46.50
2024-02-13T13:53:36.886Z,45.20
2024-02-13T13:57:40.352Z,46.10
2024-02-13T14:01:44.642Z,46.90
2024-02-13T14:05:47.878Z,45.80
2024-02-13T14:09:53.200Z,46.10
2024-02-13T14:13:58.715Z,46.00
2024-02-13T14:18:03.359Z,46.20
2024-02-13T14:22:13.197Z,46.80
2024-02-13T14:26:17.696Z,46.80
2024-02-13T14:30:59.284Z,46.40
2024-02-13T14:35:09.169Z,45.00
2024-02-13T14:49:05.456Z,44.80
2024-02-13T14:54:01.856Z,44.40
2024-02-13T14:58:23.056Z,44.60
2024-02-13T15:13:17.100Z,43.50
2024-02-13T15:17:23.667Z,44.10
2024-02-13T15:27:49.136Z,42.70
2024-02-13T17:12:01.850Z,48.40
2024-02-13T17:16:09.543Z,48.60
2024-02-13T17:20:15.271Z,48.60
2024-02-13T17:24:23.403Z,48.20
2024-02-13T17:29:21.863Z,48.10
2024-02-13T17:33:26.250Z,47.90
2024-02-13T17:37:33.689Z,48.20
2024-02-13T17:41:38.657Z,48.20
2024-02-13T17:45:46.751Z,48.50
2024-02-13T17:49:54.741Z,48.70
2024-02-13T17:54:45.117Z,48.60
2024-02-13T17:59:09.334Z,48.20
2024-02-13T18:03:25.970Z,48.30
2024-02-13T18:07:30.135Z,47.80
2024-02-13T18:11:34.810Z,48.00
2024-02-13T18:15:54.674Z,48.40
2024-02-13T18:19:57.844Z,49.00
2024-02-13T18:24:02.690Z,49.50
2024-02-13T18:28:07.596Z,50.00
2024-02-13T18:32:13.518Z,50.40
2024-02-13T18:36:19.148Z,50.70
2024-02-13T18:40:32.376Z,51.20
2024-02-13T18:44:38.284Z,51.50
2024-02-13T18:48:42.870Z,51.90
2024-02-13T18:52:47.135Z,52.40
2024-02-13T18:56:52.919Z,52.80
2024-02-13T19:00:59.519Z,53.10
2024-02-13T19:05:02.970Z,53.30
2024-02-13T19:09:11.026Z,53.60
2024-02-13T19:13:15.312Z,53.80
2024-02-13T19:17:21.838Z,54.00
2024-02-13T19:21:26.195Z,54.10
2024-02-13T19:25:33.708Z,54.20
2024-02-13T19:29:38.463Z,54.30
2024-02-13T19:33:42.884Z,54.50
2024-02-13T19:37:50.675Z,54.60
2024-02-13T19:42:05.293Z,55.00
2024-02-13T19:51:09.388Z,55.90
2024-02-13T19:55:34.693Z,56.10
2024-02-13T20:00:47.406Z,56.30
2024-02-13T20:05:19.839Z,56.60
2024-02-13T20:09:53.089Z,57.10
2024-02-13T20:14:24.683Z,57.30
2024-02-13T20:18:33.417Z,57.40
2024-02-13T20:22:41.982Z,57.70
2024-02-13T20:26:46.935Z,58.00
2024-02-13T20:30:53.950Z,58.20
2024-02-13T20:35:10.139Z,58.50
2024-02-13T20:39:16.436Z,58.90
2024-02-13T20:43:19.818Z,59.20
2024-02-13T20:51:48.512Z,60.40
2024-02-13T20:55:54.551Z,60.50
2024-02-13T21:00:34.744Z,60.20
2024-02-13T21:04:42.854Z,60.50
2024-02-13T21:09:51.127Z,60.60
2024-02-13T21:13:47.407Z,60.60
2024-02-13T21:18:08.083Z,61.00
2024-02-13T21:22:32.542Z,61.60
2024-02-13T21:27:35.559Z,62.00
2024-02-13T21:50:46.894Z,62.70
2024-02-13T21:54:50.472Z,63.00
2024-02-13T21:58:53.881Z,63.30
2024-02-13T22:03:08.946Z,63.70
2024-02-13T22:07:12.292Z,63.80
2024-02-13T22:11:15.492Z,63.70
2024-02-13T22:15:22.313Z,63.60
2024-02-13T22:19:25.940Z,63.50
2024-02-13T22:23:30.896Z,63.70
2024-02-13T22:27:36.713Z,63.90
2024-02-13T22:31:41.829Z,64.00
2024-02-13T22:35:45.163Z,64.00
2024-02-13T22:39:53.668Z,64.10
2024-02-13T22:44:08.657Z,64.10
2024-02-13T22:48:24.702Z,64.30
2024-02-13T22:52:38.392Z,64.40
2024-02-13T22:56:51.840Z,64.50
2024-02-13T23:01:05.615Z,64.50
2024-02-13T23:05:18.089Z,64.50
2024-02-13T23:14:42.711Z,64.70
2024-02-13T23:19:16.652Z,64.70
2024-02-13T23:23:30.444Z,65.00
2024-02-13T23:27:41.933Z,65.20
2024-02-13T23:32:13.853Z,65.40
2024-02-13T23:42:24.900Z,65.50
2024-02-13T23:53:05.519Z,65.40
